createdAt,value
2017-10-08T12:41:03.851Z,1.70
2017-10-08T12:43:31.313Z,1.40
2017-10-08T12:45:58.776Z,1.70
2017-10-08T12:48:26.295Z,1.50
2017-10-08T12:50:53.784Z,1.90
2017-10-08T12:53:21.244Z,2.00
2017-10-08T12:55:48.739Z,1.83
2017-10-08T12:58:16.194Z,1.60
2017-10-08T13:00:43.666Z,1.70
2017-10-08T13:03:11.128Z,1.73
2017-10-08T13:05:38.572Z,1.60
2017-10-08T13:08:06.033Z,1.67
2017-10-08T13:10:33.521Z,1.90
2017-10-08T13:13:00.981Z,1.50
2017-10-08T13:15:28.447Z,1.60
2017-10-08T13:17:55.926Z,1.60
2017-10-08T13:20:23.397Z,1.97
2017-10-08T13:22:50.887Z,2.07
2017-10-08T13:25:18.369Z,1.40
2017-10-08T13:27:45.850Z,1.80
2017-10-08T13:30:13.369Z,1.60
2017-10-08T13:32:40.867Z,1.80
2017-10-08T13:35:08.337Z,1.70
2017-10-08T13:37:35.793Z,1.73
2017-10-08T13:40:03.363Z,1.97
2017-10-08T13:42:30.851Z,1.77
2017-10-08T13:44:58.313Z,1.37
2017-10-08T13:47:25.772Z,1.17
2017-10-08T13:49:53.248Z,1.60
2017-10-08T13:52:20.731Z,1.70
2017-10-08T13:54:48.218Z,1.77
2017-10-08T13:57:15.688Z,1.70
2017-10-08T13:59:43.171Z,2.30
2017-10-08T14:02:10.660Z,1.93
2017-10-08T14:04:38.121Z,1.53
2017-10-08T14:07:05.585Z,2.00
2017-10-08T14:09:33.077Z,2.60
2017-10-08T14:12:00.563Z,1.63
2017-10-08T14:14:28.028Z,1.57
2017-10-08T14:16:55.510Z,1.83
2017-10-08T14:19:22.997Z,2.30
2017-10-08T14:21:50.464Z,1.80
2017-10-08T14:24:17.990Z,2.23
2017-10-08T14:26:45.504Z,1.83
2017-10-08T14:29:12.969Z,2.10
2017-10-08T14:31:40.458Z,1.90
2017-10-08T14:34:07.933Z,1.80
2017-10-08T14:36:35.427Z,2.20
2017-10-08T14:39:02.902Z,2.20
2017-10-08T14:41:30.351Z,1.90
2017-10-08T14:43:57.805Z,1.70
2017-10-08T14:46:25.283Z,1.80
2017-10-08T14:48:52.773Z,1.80
2017-10-08T14:51:20.248Z,1.67
2017-10-08T14:53:47.762Z,2.07
2017-10-08T14:56:15.289Z,2.10
2017-10-08T14:58:43.695Z,1.90
2017-10-08T15:01:11.208Z,2.00
2017-10-08T15:03:38.687Z,2.43
2017-10-08T15:06:06.165Z,2.00
2017-10-08T15:08:33.706Z,2.00
2017-10-08T15:11:01.216Z,1.80
2017-10-08T15:13:28.813Z,2.23
2017-10-08T15:15:56.309Z,2.03
2017-10-08T15:18:23.845Z,1.80
2017-10-08T15:20:51.320Z,2.27
2017-10-08T15:23:18.826Z,2.50
2017-10-08T15:25:46.314Z,2.07
2017-10-08T15:28:13.810Z,1.93
2017-10-08T15:30:41.302Z,1.83
2017-10-08T15:33:08.772Z,2.07
2017-10-08T15:35:36.222Z,2.37
2017-10-08T15:38:03.762Z,1.97
2017-10-08T15:40:31.427Z,2.20
2017-10-08T15:42:58.888Z,2.17
2017-10-08T15:45:26.440Z,1.67
2017-10-08T15:47:53.933Z,1.83
2017-10-08T15:50:21.433Z,1.67
2017-10-08T15:52:48.923Z,1.97
2017-10-08T15:55:16.380Z,2.00
2017-10-08T15:57:43.864Z,2.17
2017-10-08T16:00:11.363Z,1.70
2017-10-08T16:02:38.839Z,2.30
2017-10-08T16:05:06.324Z,2.47
2017-10-08T16:07:33.852Z,2.10
2017-10-08T16:10:01.345Z,2.43
2017-10-08T16:12:28.824Z,1.80
2017-10-08T16:14:56.303Z,2.30
2017-10-08T16:17:23.778Z,1.90
2017-10-08T16:19:51.232Z,2.00
2017-10-08T16:22:18.713Z,2.50
2017-10-08T16:24:46.392Z,2.30
2017-10-08T16:27:13.858Z,2.37
2017-10-08T16:29:41.328Z,2.30
2017-10-08T16:32:08.793Z,1.80
2017-10-08T16:34:36.269Z,2.70
2017-10-08T16:37:03.772Z,2.20
2017-10-08T16:39:31.231Z,2.50
2017-10-08T16:41:58.742Z,2.23
2017-10-08T16:44:26.209Z,2.23
2017-10-08T16:46:53.729Z,2.33
2017-10-08T16:49:21.224Z,2.20
2017-10-08T16:51:48.715Z,2.23
2017-10-08T16:54:16.216Z,2.63
2017-10-08T16:56:43.712Z,2.20
2017-10-08T16:59:11.238Z,2.70
2017-10-08T17:01:38.724Z,2.07
2017-10-08T17:04:06.204Z,2.73
2017-10-08T17:06:33.707Z,2.87
2017-10-08T17:09:01.258Z,3.30
2017-10-08T17:11:28.715Z,2.50
2017-10-08T17:13:56.243Z,3.03
2017-10-08T17:16:23.708Z,2.77
2017-10-08T17:18:51.178Z,3.10
2017-10-08T17:21:18.653Z,3.03
2017-10-08T17:23:46.125Z,3.20
2017-10-08T17:26:13.585Z,2.50
2017-10-08T17:28:41.086Z,2.73
2017-10-08T17:31:08.563Z,2.50
2017-10-08T17:33:36.097Z,2.53
2017-10-08T17:36:03.590Z,2.40
2017-10-08T17:38:31.037Z,3.10
2017-10-08T17:40:58.506Z,2.63
2017-10-08T17:43:25.995Z,2.60
2017-10-08T17:45:53.453Z,2.80
2017-10-08T17:48:20.965Z,2.50
2017-10-08T17:50:48.452Z,2.60
2017-10-08T17:53:15.922Z,2.70
2017-10-08T17:55:43.570Z,2.30
2017-10-08T17:58:11.073Z,2.63
2017-10-08T18:00:38.538Z,2.50
2017-10-08T18:03:06.014Z,3.20
2017-10-08T18:05:33.534Z,2.90
2017-10-08T18:08:01.024Z,2.40
2017-10-08T18:10:28.513Z,2.50
2017-10-08T18:12:56.039Z,2.17
2017-10-08T18:15:23.549Z,3.00
2017-10-08T18:17:51.046Z,2.10
2017-10-08T18:20:18.553Z,2.87
2017-10-08T18:22:46.054Z,2.53
2017-10-08T18:25:13.561Z,3.00
2017-10-08T18:27:41.049Z,3.53
2017-10-08T18:30:08.522Z,3.10
2017-10-08T18:32:35.987Z,2.77
2017-10-08T18:35:03.522Z,2.70
2017-10-08T18:37:31.008Z,2.60
2017-10-08T18:39:58.657Z,2.40
2017-10-08T18:42:26.207Z,2.40
2017-10-08T18:44:53.791Z,2.67
2017-10-08T18:47:21.557Z,2.37
2017-10-08T18:49:49.433Z,2.70
2017-10-08T18:52:17.004Z,2.90
2017-10-08T18:54:44.555Z,2.40
2017-10-08T18:57:12.119Z,3.07
2017-10-08T18:59:39.708Z,3.00
2017-10-08T19:02:07.382Z,2.60
2017-10-08T19:04:35.178Z,2.60
2017-10-08T19:07:02.990Z,2.77
2017-10-08T19:09:30.839Z,2.00
2017-10-08T19:11:58.665Z,2.73
2017-10-08T19:14:26.454Z,2.23
2017-10-08T19:16:54.278Z,2.20
2017-10-08T19:19:22.046Z,2.67
2017-10-08T19:21:49.869Z,2.20
2017-10-08T19:24:17.914Z,2.07
2017-10-08T19:26:45.711Z,2.40
2017-10-08T19:29:13.460Z,2.40
2017-10-08T19:31:41.232Z,2.53
2017-10-08T19:34:09.062Z,2.60
2017-10-08T19:36:36.773Z,2.87
2017-10-08T19:39:04.444Z,2.43
2017-10-08T19:41:32.227Z,2.23
2017-10-08T19:43:59.974Z,2.90
2017-10-08T19:46:27.532Z,2.67
2017-10-08T19:48:55.424Z,2.80
2017-10-08T19:51:23.016Z,2.33
2017-10-08T19:53:50.562Z,2.60
2017-10-08T19:56:18.429Z,2.50
2017-10-08T19:58:46.200Z,2.70
2017-10-08T20:01:13.994Z,2.77
2017-10-08T20:03:41.805Z,2.50
2017-10-08T20:06:09.689Z,2.83
2017-10-08T20:08:37.493Z,2.23
2017-10-08T20:11:05.047Z,1.90
2017-10-08T20:13:32.532Z,2.40
2017-10-08T20:16:00.021Z,2.10
2017-10-08T20:18:27.512Z,2.30
2017-10-08T20:20:54.989Z,2.90
2017-10-08T20:23:22.492Z,2.73
2017-10-08T20:25:49.961Z,2.23
2017-10-08T20:28:17.434Z,2.40
2017-10-08T20:30:44.922Z,2.60
2017-10-08T20:33:12.427Z,2.73
2017-10-08T20:35:39.940Z,2.50
2017-10-08T20:38:07.417Z,3.00
2017-10-08T20:40:34.986Z,3.30
2017-10-08T20:43:02.502Z,3.47
2017-10-08T20:45:29.996Z,2.80
2017-10-08T20:47:57.542Z,3.40
2017-10-08T20:50:25.051Z,3.10
2017-10-08T20:52:52.549Z,2.10
2017-10-08T20:55:20.029Z,2.77
2017-10-08T20:57:47.528Z,2.17
2017-10-08T21:00:15.003Z,2.60
2017-10-08T21:02:42.501Z,1.87
2017-10-08T21:05:10.002Z,2.23
2017-10-08T21:07:37.476Z,2.40
2017-10-08T21:10:04.966Z,1.97
2017-10-08T21:12:32.434Z,1.60
2017-10-08T21:14:59.917Z,1.47
2017-10-08T21:17:27.433Z,1.23
2017-10-08T21:19:54.922Z,1.17
2017-10-08T21:22:22.406Z,1.60
2017-10-08T21:24:50.007Z,1.20
2017-10-08T21:27:17.486Z,1.37
2017-10-08T21:29:44.951Z,1.73
2017-10-08T21:32:12.430Z,1.40
2017-10-08T21:34:39.903Z,1.20
2017-10-08T21:37:07.374Z,1.37
2017-10-08T21:39:34.868Z,1.20
2017-10-08T21:42:02.365Z,1.67
2017-10-08T21:44:29.855Z,1.33
2017-10-08T21:46:57.327Z,1.67
2017-10-08T21:49:24.810Z,1.70
2017-10-08T21:51:52.324Z,1.50
2017-10-08T21:54:19.805Z,1.60
2017-10-08T21:56:47.290Z,1.60
2017-10-08T21:59:14.825Z,1.67
2017-10-08T22:01:42.335Z,1.73
2017-10-08T22:04:09.833Z,1.50
2017-10-08T22:06:37.301Z,2.00
2017-10-08T22:09:04.800Z,1.50
2017-10-08T22:11:32.278Z,1.57
2017-10-08T22:13:59.733Z,1.97
2017-10-08T22:16:27.241Z,1.47
2017-10-08T22:18:54.736Z,1.80
2017-10-08T22:21:22.283Z,1.50
2017-10-08T22:23:49.812Z,2.10
2017-10-08T22:26:17.264Z,1.70
2017-10-08T22:28:44.857Z,1.87
2017-10-08T22:44:07.396Z,1.90
2017-10-08T22:46:34.899Z,1.80
2017-10-08T22:49:02.363Z,1.87
2017-10-08T22:51:29.858Z,1.90
2017-10-08T22:53:57.320Z,1.87
2017-10-08T22:56:24.930Z,2.00
2017-10-08T22:58:52.463Z,1.50
2017-10-08T23:01:19.958Z,1.90
2017-10-08T23:03:47.434Z,1.70
2017-10-08T23:06:14.914Z,1.80
2017-10-08T23:08:42.388Z,1.33
2017-10-08T23:11:09.848Z,1.33
2017-10-08T23:13:37.404Z,1.60
2017-10-08T23:16:04.881Z,1.60
2017-10-08T23:18:32.345Z,1.80
2017-10-08T23:20:59.807Z,1.90
2017-10-08T23:26:00.199Z,1.70
2017-10-08T23:28:27.658Z,1.70
2017-10-08T23:30:55.113Z,1.30
2017-10-08T23:33:22.608Z,1.43
2017-10-08T23:35:50.577Z,1.47
2017-10-08T23:38:18.045Z,1.40
2017-10-08T23:40:45.526Z,1.50
2017-10-08T23:43:12.985Z,1.70
2017-10-08T23:45:40.432Z,1.70
2017-10-08T23:48:07.920Z,1.13
2017-10-08T23:50:35.376Z,1.27
2017-10-08T23:53:02.849Z,1.80
2017-10-08T23:55:30.333Z,1.70
2017-10-08T23:57:57.776Z,2.03
